Time;durP1;ratioP1;P1;durP2;ratioP2;P2;SDS_P1;SDS_P2;PMS_P1;PMS_P2;Temp;Humidity;BMP_temperature;BMP_pressure;BME280_temperature;BME280_humidity;BME280_pressure;Samples;Min_cycle;Max_cycle;Signal;HPM_P1;HPM_P2
2021/12/16 00:01:47;;;;;;;5.80;1.30;;;;;;;8.38;100.00;103403.63;5072129;28;20524;-35
2021/12/16 00:07:24;;;;;;;5.93;1.27;;;;;;;8.32;100.00;103404.47;5030358;28;20056;-34
2021/12/16 00:10:01;;;;;;;3.60;1.42;;;;;;;8.32;100.00;103398.91;5014492;28;20109;-38
2021/12/16 00:29:53;;;;;;;7.13;1.65;;;;;;;8.27;100.00;103389.28;5062050;28;20040;-29
2021/12/16 00:32:34;;;;;;;8.52;1.73;;;;;;;8.25;100.00;103388.66;5069689;28;20052;-37
2021/12/16 00:35:03;;;;;;;6.40;1.40;;;;;;;8.26;100.00;103389.50;5072002;28;20083;-29
2021/12/16 00:37:31;;;;;;;7.38;2.03;;;;;;;8.25;100.00;103385.88;5071791;28;20044;-31
2021/12/16 00:39:59;;;;;;;7.32;1.67;;;;;;;8.25;100.00;103394.22;5071636;28;20054;-34
2021/12/16 00:42:37;;;;;;;8.18;1.70;;;;;;;8.25;100.00;103399.78;5070888;28;20040;-32
2021/12/16 00:47:56;;;;;;;7.55;1.80;;;;;;;8.24;100.00;103405.56;5054073;28;20065;-34
2021/12/16 01:08:14;;;;;;;7.55;1.80;;;;;;;8.16;100.00;103422.53;5011920;28;20041;-35
2021/12/16 01:36:34;;;;;;;8.70;2.50;;;;;;;8.54;100.00;103442.91;5069962;28;20068;-36
2021/12/16 01:39:51;;;;;;;9.13;2.58;;;;;;;8.56;100.00;103446.34;5069648;28;20060;-32
2021/12/16 01:42:41;;;;;;;7.28;1.95;;;;;;;8.61;100.00;103446.50;5063393;28;20057;-38
2021/12/16 01:45:44;;;;;;;6.38;1.80;;;;;;;8.63;100.00;103451.84;5068904;28;20102;-30
2021/12/16 01:51:04;;;;;;;7.30;2.53;;;;;;;8.70;100.00;103451.81;5070308;28;20102;-39
2021/12/16 01:54:02;;;;;;;11.43;3.00;;;;;;;8.75;100.00;103454.78;5071182;28;20059;-36
2021/12/16 01:56:40;;;;;;;9.02;3.03;;;;;;;8.79;100.00;103459.66;5073258;28;20048;-30
2021/12/16 01:59:16;;;;;;;9.32;2.78;;;;;;;8.83;100.00;103451.72;5073252;28;20417;-35
2021/12/16 02:01:44;;;;;;;9.93;3.15;;;;;;;8.86;100.00;103459.63;5074009;28;20493;-38
2021/12/16 02:04:21;;;;;;;9.10;2.70;;;;;;;8.91;100.00;103459.81;5073772;28;20106;-36
2021/12/16 02:07:03;;;;;;;9.90;2.75;;;;;;;8.95;100.00;103455.50;5072061;28;20690;-36
2021/12/16 02:09:38;;;;;;;10.57;2.53;;;;;;;8.97;100.00;103462.56;5074801;28;20052;-31
2021/12/16 02:12:18;;;;;;;10.05;3.05;;;;;;;9.01;100.00;103457.38;5069737;28;20098;-35
2021/12/16 02:28:56;;;;;;;8.48;2.88;;;;;;;9.14;100.00;103459.22;5073535;28;20079;-32
2021/12/16 02:31:44;;;;;;;11.75;3.08;;;;;;;9.16;100.00;103463.50;5074127;28;20048;-31
2021/12/16 02:34:31;;;;;;;12.75;3.28;;;;;;;9.17;100.00;103470.78;5072713;28;20048;-32
2021/12/16 02:37:05;;;;;;;14.27;3.03;;;;;;;9.18;100.00;103469.69;5070788;28;20060;-35
2021/12/16 02:39:34;;;;;;;10.55;2.92;;;;;;;9.18;100.00;103466.06;5074561;28;20047;-31
2021/12/16 02:42:13;;;;;;;10.48;3.13;;;;;;;9.19;100.00;103465.81;5071843;28;20052;-34
2021/12/16 02:48:28;;;;;;;9.07;3.10;;;;;;;9.17;100.00;103470.78;5073234;28;20509;-33
2021/12/16 02:50:19;;;;;;;12.88;3.20;;;;;;;9.14;100.00;103475.94;5074050;28;20102;-32
2021/12/16 02:52:49;;;;;;;9.85;2.65;;;;;;;9.13;100.00;103477.88;5073863;28;20110;-40
2021/12/16 02:55:19;;;;;;;10.07;3.45;;;;;;;9.10;100.00;103480.25;5056739;28;20045;-39
2021/12/16 02:57:53;;;;;;;7.95;2.30;;;;;;;9.07;100.00;103489.91;5072538;28;20076;-38
2021/12/16 03:00:21;;;;;;;9.20;2.72;;;;;;;9.04;100.00;103489.50;5072707;28;20131;-35
2021/12/16 03:02:52;;;;;;;13.18;3.20;;;;;;;9.00;100.00;103486.28;5072877;28;20122;-30
2021/12/16 03:05:21;;;;;;;7.10;2.78;;;;;;;8.98;100.00;103477.34;5073249;28;20048;-35
2021/12/16 03:07:52;;;;;;;5.72;2.13;;;;;;;8.94;100.00;103474.16;5073988;28;20438;-31
2021/12/16 03:13:10;;;;;;;12.70;3.35;;;;;;;8.85;100.00;103471.84;5072290;28;20509;-35
2021/12/16 03:15:56;;;;;;;9.95;2.70;;;;;;;8.84;100.00;103476.56;5073302;28;20076;-39
2021/12/16 03:18:33;;;;;;;10.75;2.80;;;;;;;8.81;100.00;103478.94;5070160;28;20417;-37
2021/12/16 03:21:08;;;;;;;6.53;2.40;;;;;;;8.78;100.00;103471.03;5072345;28;20127;-35
2021/12/16 03:23:51;;;;;;;6.82;2.60;;;;;;;8.76;100.00;103473.19;5072784;28;20497;-40
2021/12/16 03:29:29;;;;;;;12.57;3.53;;;;;;;8.69;100.00;103484.34;5059083;28;20474;-37
2021/12/16 03:32:46;;;;;;;10.10;3.13;;;;;;;8.66;100.00;103478.38;5073329;28;20045;-31
2021/12/16 03:35:31;;;;;;;10.73;3.53;;;;;;;8.62;100.00;103494.66;5072397;28;20483;-35
2021/12/16 03:38:02;;;;;;;9.00;3.38;;;;;;;8.60;100.00;103496.81;5072511;28;20041;-33
2021/12/16 03:40:33;;;;;;;13.55;4.03;;;;;;;8.60;100.00;103491.25;5073301;28;20532;-36
2021/12/16 03:43:05;;;;;;;12.13;4.28;;;;;;;8.58;100.00;103490.66;5073149;28;20048;-33
2021/12/16 03:48:33;;;;;;;10.23;3.63;;;;;;;8.51;100.00;103496.22;5072869;28;20047;-35
2021/12/16 03:51:05;;;;;;;14.90;4.75;;;;;;;8.52;100.00;103502.66;5071305;28;20169;-31
2021/12/16 03:53:33;;;;;;;12.82;4.32;;;;;;;8.51;100.00;103499.00;5071495;28;20467;-34
2021/12/16 03:56:04;;;;;;;10.57;3.83;;;;;;;8.51;100.00;103504.56;5071906;28;20036;-32
2021/12/16 03:58:41;;;;;;;8.57;3.28;;;;;;;8.50;100.00;103502.88;5070804;28;20040;-35
2021/12/16 04:01:13;;;;;;;11.25;3.55;;;;;;;8.50;100.00;103491.72;5071634;28;20060;-40
2021/12/16 04:03:41;;;;;;;15.15;4.13;;;;;;;8.49;100.00;103503.09;5071521;28;20493;-34
2021/12/16 04:06:11;;;;;;;13.57;4.03;;;;;;;8.48;100.00;103498.59;5070868;28;20520;-39
2021/12/16 04:08:40;;;;;;;14.35;4.35;;;;;;;8.49;100.00;103500.31;5070272;28;20044;-32
2021/12/16 04:11:18;;;;;;;11.38;4.18;;;;;;;8.48;100.00;103491.09;5070502;28;20049;-36
2021/12/16 04:14:00;;;;;;;15.68;4.40;;;;;;;8.45;100.00;103499.88;5071265;28;20451;-34
2021/12/16 04:16:37;;;;;;;11.45;3.88;;;;;;;8.47;100.00;103519.16;5070717;28;20056;-33
2021/12/16 04:19:10;;;;;;;13.48;4.20;;;;;;;8.46;100.00;103506.31;5070160;28;20477;-32
2021/12/16 04:21:38;;;;;;;12.38;4.07;;;;;;;8.45;100.00;103499.88;5072669;28;20036;-36
2021/12/16 04:24:07;;;;;;;9.65;3.83;;;;;;;8.44;100.00;103500.09;5070729;28;20106;-30
2021/12/16 04:26:40;;;;;;;13.52;3.95;;;;;;;8.42;100.00;103500.31;5067408;28;20071;-38
2021/12/16 04:29:09;;;;;;;10.38;3.60;;;;;;;8.41;100.00;103515.31;5070869;28;20429;-40
2021/12/16 04:31:39;;;;;;;13.68;4.13;;;;;;;8.42;100.00;103528.16;5071151;28;20482;-34
2021/12/16 04:34:09;;;;;;;13.40;4.40;;;;;;;8.42;100.00;103528.16;5070008;28;20044;-36
2021/12/16 04:36:39;;;;;;;17.85;4.63;;;;;;;8.43;100.00;103524.28;5070315;28;20045;-39
2021/12/16 04:39:10;;;;;;;16.27;4.70;;;;;;;8.44;100.00;103526.00;5070726;28;20052;-38
2021/12/16 04:41:41;;;;;;;10.15;4.15;;;;;;;8.44;100.00;103526.00;5070037;28;20409;-34
2021/12/16 04:44:12;;;;;;;12.77;4.35;;;;;;;8.46;100.00;103529.41;5070770;28;20114;-36
2021/12/16 04:46:41;;;;;;;13.73;4.72;;;;;;;8.46;100.00;103515.50;5066505;28;20404;-34
2021/12/16 04:49:11;;;;;;;7.97;3.72;;;;;;;8.45;100.00;103516.56;5069146;28;20037;-36
2021/12/16 04:51:45;;;;;;;11.25;4.25;;;;;;;8.44;100.00;103526.00;5070872;28;20473;-36
2021/12/16 04:54:14;;;;;;;14.52;4.40;;;;;;;8.42;100.00;103528.16;5052542;28;20067;-41
2021/12/16 04:56:43;;;;;;;12.63;3.75;;;;;;;8.41;100.00;103526.44;5070387;28;20052;-36
2021/12/16 04:59:14;;;;;;;8.63;3.40;;;;;;;8.40;100.00;103521.94;5070342;28;20066;-37
2021/12/16 05:01:47;;;;;;;9.20;4.00;;;;;;;8.39;100.00;103530.53;5069334;28;20054;-31
2021/12/16 05:04:20;;;;;;;12.32;4.70;;;;;;;8.35;100.00;103530.13;5070533;28;20131;-37
2021/12/16 05:06:48;;;;;;;10.15;3.45;;;;;;;8.34;100.00;103533.97;5069709;28;20051;-31
2021/12/16 05:09:42;;;;;;;8.95;3.40;;;;;;;8.33;100.00;103537.81;5070748;28;20517;-38
2021/12/16 05:12:09;;;;;;;9.88;3.90;;;;;;;8.32;100.00;103519.41;5068417;28;20087;-37
2021/12/16 05:14:36;;;;;;;;;;;;;;;8.27;100.00;103531.16;5067391;28;20139;-37
2021/12/16 05:17:21;;;;;;;7.47;3.53;;;;;;;8.23;100.00;103532.66;5068783;28;20015;-33
2021/12/16 05:19:51;;;;;;;9.07;3.65;;;;;;;8.24;100.00;103531.59;5070056;28;20055;-34
2021/12/16 05:25:10;;;;;;;16.35;5.00;;;;;;;8.27;100.00;103530.31;5070212;28;20485;-31
2021/12/16 05:27:39;;;;;;;16.50;4.85;;;;;;;8.27;100.00;103542.28;5067076;28;20151;-37
2021/12/16 05:30:08;;;;;;;12.20;4.03;;;;;;;8.30;100.00;103546.56;5069107;28;20476;-39
2021/12/16 05:32:35;;;;;;;14.10;4.38;;;;;;;8.29;100.00;103547.63;5068913;28;20036;-33
2021/12/16 05:35:04;;;;;;;13.00;4.00;;;;;;;8.29;100.00;103559.63;5069816;28;20464;-33
2021/12/16 05:37:32;;;;;;;11.05;4.30;;;;;;;8.30;100.00;103552.13;5068612;28;20382;-30
2021/12/16 05:40:00;;;;;;;13.35;4.53;;;;;;;8.27;100.00;103547.00;5070045;28;20049;-40
2021/12/16 05:42:49;;;;;;;10.05;3.65;;;;;;;8.26;100.00;103540.59;5068623;28;20124;-34
2021/12/16 05:45:18;;;;;;;14.52;4.80;;;;;;;8.26;100.00;103550.84;5071129;28;20048;-33
2021/12/16 05:47:47;;;;;;;7.30;3.10;;;;;;;8.25;100.00;103555.56;5069231;28;20094;-32
2021/12/16 05:50:15;;;;;;;12.52;4.10;;;;;;;8.25;100.00;103554.72;5070731;28;20048;-36
2021/12/16 05:52:43;;;;;;;9.85;3.95;;;;;;;8.24;100.00;103564.13;5069075;28;20045;-34
2021/12/16 05:55:14;;;;;;;10.38;4.28;;;;;;;8.25;100.00;103571.41;5069921;28;20049;-32
2021/12/16 05:58:07;;;;;;;16.13;4.22;;;;;;;8.24;100.00;103575.25;5068550;28;20494;-33
2021/12/16 06:00:39;;;;;;;7.07;3.28;;;;;;;8.23;100.00;103579.97;5070127;28;20056;-32
2021/12/16 06:03:09;;;;;;;10.18;3.80;;;;;;;8.23;100.00;103585.53;5069327;28;20507;-39
2021/12/16 06:05:39;;;;;;;18.67;4.93;;;;;;;8.22;100.00;103582.94;5068926;28;20075;-33
2021/12/16 06:08:08;;;;;;;13.05;4.35;;;;;;;8.22;100.00;103591.28;5069209;28;20048;-41
2021/12/16 06:11:13;;;;;;;15.25;4.72;;;;;;;8.21;100.00;103590.44;5069826;28;20551;-29
2021/12/16 06:13:56;;;;;;;10.05;3.42;;;;;;;8.19;100.00;103600.09;5070560;28;20417;-33
2021/12/16 06:27:27;;;;;;;8.48;3.30;;;;;;;8.06;100.00;103595.38;5069585;28;20044;-37
2021/12/16 06:29:57;;;;;;;11.70;4.03;;;;;;;8.05;100.00;103609.50;5070815;28;20044;-38
2021/12/16 06:32:26;;;;;;;8.57;3.25;;;;;;;8.03;100.00;103620.00;5069716;28;20060;-39
2021/12/16 06:34:54;;;;;;;6.50;2.38;;;;;;;8.02;100.00;103621.06;5070178;28;20044;-37
2021/12/16 06:37:23;;;;;;;8.23;3.00;;;;;;;7.98;100.00;103608.69;5070540;28;20429;-35
2021/12/16 06:39:51;;;;;;;8.25;2.92;;;;;;;7.92;100.00;103619.59;5068746;28;20044;-34
2021/12/16 06:42:33;;;;;;;8.40;3.38;;;;;;;7.88;100.00;103634.13;5073111;28;20048;-32
2021/12/16 06:45:08;;;;;;;6.38;2.50;;;;;;;7.85;100.00;103635.38;5072233;28;20049;-36
2021/12/16 06:47:42;;;;;;;4.60;2.20;;;;;;;7.83;100.00;103645.88;5073650;28;20048;-32
2021/12/16 06:50:13;;;;;;;7.57;2.67;;;;;;;7.80;100.00;103654.63;5073567;28;20055;-35
2021/12/16 06:52:42;;;;;;;5.00;2.20;;;;;;;7.76;100.00;103650.59;5073740;28;20055;-37
2021/12/16 06:55:16;;;;;;;5.43;2.03;;;;;;;7.73;100.00;103655.72;5073063;28;20068;-35
2021/12/16 06:57:51;;;;;;;6.57;2.65;;;;;;;7.66;100.00;103652.06;5074224;28;20048;-32
2021/12/16 07:00:31;;;;;;;5.22;1.98;;;;;;;7.61;100.00;103653.53;5072898;28;20043;-31
2021/12/16 07:03:01;;;;;;;3.65;1.70;;;;;;;7.56;100.00;103666.38;5074135;28;20063;-32
2021/12/16 07:05:32;;;;;;;3.63;1.80;;;;;;;7.50;100.00;103651.38;5074029;28;20158;-32
2021/12/16 07:08:04;;;;;;;3.72;1.88;;;;;;;7.47;100.00;103656.50;5073452;28;20106;-33
2021/12/16 07:10:34;;;;;;;5.53;2.17;;;;;;;7.42;100.00;103667.38;5072958;28;20140;-29
2021/12/16 07:13:15;;;;;;;3.20;1.80;;;;;;;7.36;100.00;103666.31;5072217;28;20050;-34
2021/12/16 07:15:45;;;;;;;4.30;2.00;;;;;;;7.32;100.00;103669.72;5071607;28;20149;-32
2021/12/16 07:18:14;;;;;;;3.92;2.00;;;;;;;7.28;100.00;103663.72;5072464;28;20086;-37
2021/12/16 07:20:42;;;;;;;4.93;2.33;;;;;;;7.23;100.00;103667.13;5072083;28;20049;-34
2021/12/16 07:23:10;;;;;;;6.97;2.20;;;;;;;7.19;100.00;103668.59;5071152;28;20055;-36
2021/12/16 07:25:38;;;;;;;4.97;2.00;;;;;;;7.15;100.00;103674.78;5072280;28;20044;-28
2021/12/16 07:28:07;;;;;;;5.82;2.80;;;;;;;7.10;100.00;103685.66;5072089;28;20063;-34
2021/12/16 07:30:36;;;;;;;5.03;2.40;;;;;;;7.04;100.00;103684.56;5070095;28;20052;-38
2021/12/16 07:33:06;;;;;;;4.53;2.10;;;;;;;6.98;100.00;103679.84;5071840;28;20055;-39
2021/12/16 07:35:36;;;;;;;6.50;3.38;;;;;;;6.93;100.00;103676.81;5070674;28;20044;-32
2021/12/16 07:38:05;;;;;;;6.10;2.45;;;;;;;6.88;100.00;103679.34;5071558;28;20055;-35
2021/12/16 07:40:35;;;;;;;5.35;2.30;;;;;;;6.83;100.00;103688.28;5069699;28;20045;-32
2021/12/16 07:43:24;;;;;;;4.93;2.10;;;;;;;6.81;100.00;103697.88;5070321;28;20061;-40
2021/12/16 07:45:54;;;;;;;5.57;2.45;;;;;;;6.76;100.00;103705.97;5064569;28;20055;-33
2021/12/16 07:48:26;;;;;;;4.07;2.00;;;;;;;6.73;100.00;103718.34;5066997;28;20044;-35
2021/12/16 07:50:57;;;;;;;5.50;2.67;;;;;;;6.69;100.00;103708.69;5071065;28;20054;-37
2021/12/16 07:53:25;;;;;;;4.80;2.20;;;;;;;6.65;100.00;103717.63;5068224;28;20306;-34
2021/12/16 07:55:53;;;;;;;3.45;2.03;;;;;;;6.61;100.00;103721.88;5071712;28;20485;-33
2021/12/16 07:58:23;;;;;;;6.00;2.50;;;;;;;6.59;100.00;103727.66;5070538;28;20045;-31
2021/12/16 08:00:53;;;;;;;4.32;2.40;;;;;;;6.56;100.00;103728.91;5070535;28;20044;-35
2021/12/16 08:03:22;;;;;;;4.65;2.33;;;;;;;6.55;100.00;103738.28;5070746;28;20051;-36
2021/12/16 08:05:58;;;;;;;6.97;2.65;;;;;;;6.54;100.00;103741.25;5071898;28;20409;-34
2021/12/16 08:08:26;;;;;;;6.63;2.88;;;;;;;6.50;100.00;103743.56;5071421;28;20436;-32
2021/12/16 08:10:55;;;;;;;4.82;2.88;;;;;;;6.50;100.00;103743.56;5070852;28;20052;-33
2021/12/16 08:13:23;;;;;;;5.63;3.30;;;;;;;6.49;100.00;103741.00;5069774;28;20058;-35
2021/12/16 08:15:51;;;;;;;5.07;2.92;;;;;;;6.50;100.00;103753.81;5071455;28;20394;-36
2021/12/16 08:18:19;;;;;;;4.85;3.00;;;;;;;6.50;100.00;103743.56;5070537;28;20410;-37
2021/12/16 08:20:47;;;;;;;6.43;3.53;;;;;;;6.52;100.00;103743.38;5071369;28;20135;-33
2021/12/16 08:23:16;;;;;;;6.78;4.10;;;;;;;6.54;100.00;103756.00;5069763;28;20048;-36
2021/12/16 08:25:44;;;;;;;7.72;3.65;;;;;;;6.62;100.00;103754.09;5070362;28;20058;-36
2021/12/16 08:28:12;;;;;;;6.90;4.05;;;;;;;6.71;100.00;103755.69;5070745;28;20052;-38
2021/12/16 08:30:44;;;;;;;7.88;3.80;;;;;;;6.73;100.00;103759.97;5069274;28;20249;-33
2021/12/16 08:33:13;;;;;;;6.00;4.07;;;;;;;6.75;100.00;103768.09;5069898;28;20044;-37
2021/12/16 08:35:45;;;;;;;8.90;4.50;;;;;;;6.77;100.00;103772.38;5070921;28;20080;-42
2021/12/16 08:38:15;;;;;;;7.28;3.92;;;;;;;6.81;100.00;103770.03;5070637;28;20052;-35
2021/12/16 08:40:46;;;;;;;12.63;5.18;;;;;;;6.86;100.00;103768.38;5070503;28;20044;-38
2021/12/16 08:43:15;;;;;;;7.18;3.40;;;;;;;6.90;100.00;103775.25;5070643;28;20049;-35
2021/12/16 08:45:44;;;;;;;6.65;3.35;;;;;;;6.93;100.00;103781.44;5070020;28;20044;-38
2021/12/16 08:48:12;;;;;;;5.22;3.15;;;;;;;6.97;100.00;103772.50;5069769;28;20044;-39
2021/12/16 08:50:44;;;;;;;6.25;3.35;;;;;;;7.02;100.00;103772.75;5070366;28;20053;-32
2021/12/16 08:53:13;;;;;;;6.28;3.60;;;;;;;7.06;100.00;103774.06;5069458;28;20056;-36
2021/12/16 08:55:43;;;;;;;6.10;2.95;;;;;;;7.10;100.00;103766.19;5070837;28;20148;-40
2021/12/16 08:58:12;;;;;;;6.85;3.20;;;;;;;7.15;100.00;103770.06;5070712;28;20398;-39
2021/12/16 09:00:44;;;;;;;7.88;3.58;;;;;;;7.24;100.00;103774.38;5066911;28;20040;-41
2021/12/16 09:03:13;;;;;;;8.52;3.50;;;;;;;7.36;100.00;103774.66;5069725;28;20093;-37
2021/12/16 09:05:41;;;;;;;9.82;4.70;;;;;;;7.55;100.00;103776.66;5069429;28;20494;-36
2021/12/16 09:08:09;;;;;;;8.50;4.45;;;;;;;7.84;100.00;103786.56;5070613;28;20062;-40
2021/12/16 09:10:38;;;;;;;8.52;4.10;;;;;;;8.18;100.00;103782.81;5071491;28;20045;-35
2021/12/16 09:13:12;;;;;;;10.48;5.07;;;;;;;8.62;100.00;103795.28;5071474;28;20457;-39
2021/12/16 09:15:45;;;;;;;12.18;5.13;;;;;;;9.05;100.00;103797.59;5068123;28;20071;-33
2021/12/16 09:18:16;;;;;;;11.77;5.20;;;;;;;9.41;100.00;103797.06;5070541;28;20043;-37
2021/12/16 09:20:44;;;;;;;14.05;6.30;;;;;;;9.75;100.00;103799.50;5065761;28;20479;-33
2021/12/16 09:23:14;;;;;;;11.25;5.15;;;;;;;10.11;100.00;103792.44;5053419;28;20043;-31
2021/12/16 09:25:44;;;;;;;13.63;5.03;;;;;;;10.45;100.00;103797.59;5070327;28;20044;-37
2021/12/16 09:28:13;;;;;;;17.38;5.75;;;;;;;10.83;100.00;103797.47;5069771;28;20485;-35
2021/12/16 09:30:43;;;;;;;10.43;4.60;;;;;;;11.20;100.00;103798.38;5070779;28;20044;-31
2021/12/16 09:33:15;;;;;;;10.88;4.28;;;;;;;11.55;100.00;103803.38;5070936;28;20390;-34
2021/12/16 09:35:44;;;;;;;;;;;;;;;11.79;100.00;103805.22;5070640;28;20083;-38
2021/12/16 09:38:15;;;;;;;17.88;4.75;;;;;;;12.00;100.00;103806.66;5071165;28;20380;-38
2021/12/16 09:40:49;;;;;;;10.20;4.25;;;;;;;12.33;100.00;103803.38;5070618;28;20111;-39
2021/12/16 09:43:18;;;;;;;12.55;4.55;;;;;;;12.66;100.00;103809.28;5070695;28;20136;-35
2021/12/16 09:45:53;;;;;;;13.35;3.70;;;;;;;12.87;100.00;103807.00;5070864;28;20036;-37
2021/12/16 09:48:22;;;;;;;12.05;3.70;;;;;;;12.98;100.00;103814.56;5071282;28;20044;-40
2021/12/16 09:50:51;;;;;;;11.48;4.22;;;;;;;13.18;100.00;103817.91;5069994;28;20481;-38
2021/12/16 09:53:19;;;;;;;12.18;4.80;;;;;;;13.36;100.00;103814.94;5070687;28;20060;-36
2021/12/16 09:55:51;;;;;;;14.48;4.47;;;;;;;13.60;100.00;103824.16;5070515;28;20076;-37
2021/12/16 09:58:22;;;;;;;11.05;4.25;;;;;;;13.86;100.00;103822.75;5070965;28;20102;-38
2021/12/16 10:00:52;;;;;;;10.95;3.60;;;;;;;14.01;100.00;103828.66;5069158;28;20394;-38
2021/12/16 10:03:21;;;;;;;9.18;4.03;;;;;;;14.08;100.00;103826.56;5070094;28;20120;-40
2021/12/16 10:05:49;;;;;;;7.72;3.35;;;;;;;14.14;100.00;103819.09;5070274;28;20051;-34
2021/12/16 10:08:17;;;;;;;11.60;4.80;;;;;;;14.28;100.00;103826.13;5071118;28;20055;-32
2021/12/16 10:10:45;;;;;;;9.57;4.22;;;;;;;14.54;100.00;103823.81;5069622;28;20048;-42
2021/12/16 10:13:21;;;;;;;12.95;4.20;;;;;;;14.83;100.00;103831.91;5069570;28;20462;-38
2021/12/16 10:18:51;;;;;;;9.35;3.80;;;;;;;15.18;100.00;103827.97;5064525;28;20122;-32
2021/12/16 10:21:23;;;;;;;9.80;4.13;;;;;;;15.30;100.00;103825.91;5074633;28;20051;-38
2021/12/16 10:23:51;;;;;;;9.63;3.47;;;;;;;15.44;100.00;103830.03;5074760;28;20370;-30
2021/12/16 10:26:22;;;;;;;8.15;3.40;;;;;;;15.55;100.00;103824.56;5073759;28;20079;-33
2021/12/16 10:28:53;;;;;;;9.77;3.42;;;;;;;15.66;100.00;103829.25;5074884;28;20120;-34
2021/12/16 10:31:25;;;;;;;8.93;3.53;;;;;;;15.76;100.00;103826.56;5073619;28;20405;-40
2021/12/16 10:33:54;;;;;;;;;;;;;;;15.71;100.00;103834.94;5075062;28;20489;-32
2021/12/16 10:36:26;;;;;;;8.18;2.85;;;;;;;15.73;100.00;103833.56;5074079;28;19920;-38
2021/12/16 10:38:56;;;;;;;9.57;4.07;;;;;;;15.79;100.00;103828.84;5073698;28;20469;-39
2021/12/16 10:41:26;;;;;;;7.55;3.00;;;;;;;15.84;100.00;103828.91;5074053;28;20049;-38
2021/12/16 10:43:56;;;;;;;11.00;3.40;;;;;;;15.78;100.00;103825.19;5074392;28;20072;-41
2021/12/16 10:46:31;;;;;;;9.15;3.25;;;;;;;15.80;100.00;103816.47;5073357;28;20508;-41
2021/12/16 10:49:04;;;;;;;10.73;3.40;;;;;;;15.66;100.00;103817.97;5074107;28;20049;-39
2021/12/16 10:51:34;;;;;;;7.25;3.40;;;;;;;15.48;100.00;103822.78;5074322;28;20041;-40
2021/12/16 10:54:07;;;;;;;8.13;3.30;;;;;;;15.46;100.00;103810.94;5073076;28;20057;-41
2021/12/16 10:56:53;;;;;;;9.15;3.63;;;;;;;15.47;100.00;103811.78;5073798;28;20044;-36
2021/12/16 10:59:25;;;;;;;10.23;3.17;;;;;;;15.47;100.00;103808.97;5072428;28;20045;-41
2021/12/16 11:02:05;;;;;;;6.63;3.50;;;;;;;15.43;100.00;103811.44;5073710;28;20044;-40
2021/12/16 11:04:40;;;;;;;11.02;4.00;;;;;;;15.34;100.00;103807.41;5073800;28;20049;-39
2021/12/16 11:07:13;;;;;;;6.78;3.33;;;;;;;15.31;100.00;103816.34;5072819;28;20120;-39
2021/12/16 11:09:49;;;;;;;9.32;3.83;;;;;;;15.20;100.00;103811.66;5073756;28;20052;-33
2021/12/16 11:12:36;;;;;;;7.28;3.25;;;;;;;14.99;100.00;103818.09;5073595;28;20075;-40
2021/12/16 11:15:11;;;;;;;11.60;3.63;;;;;;;14.79;100.00;103822.28;5072665;28;20051;-35
2021/12/16 11:17:42;;;;;;;8.07;3.45;;;;;;;14.72;100.00;103820.75;5073648;28;20080;-40
2021/12/16 11:20:23;;;;;;;12.73;4.25;;;;;;;14.66;100.00;103824.56;5072936;28;20048;-36
2021/12/16 11:22:55;;;;;;;9.90;3.75;;;;;;;14.52;100.00;103831.63;5073235;28;20047;-44
2021/12/16 11:25:27;;;;;;;9.10;3.40;;;;;;;14.40;100.00;103824.13;5072692;28;20519;-34
2021/12/16 11:28:05;;;;;;;9.43;3.63;;;;;;;14.30;100.00;103823.91;5072437;28;20056;-37
2021/12/16 11:30:37;;;;;;;8.35;3.63;;;;;;;14.29;100.00;103832.59;5072741;28;20047;-38
2021/12/16 11:33:11;;;;;;;;;;;;;;;14.23;100.00;103825.16;5072913;28;20135;-38
2021/12/16 11:35:43;;;;;;;11.25;3.55;;;;;;;14.16;100.00;103822.53;5072084;28;19920;-39
2021/12/16 11:38:17;;;;;;;13.63;4.72;;;;;;;13.93;100.00;103822.63;5073239;28;20048;-38
2021/12/16 11:40:55;;;;;;;8.43;3.50;;;;;;;13.73;100.00;103829.50;5073429;28;20040;-40
2021/12/16 11:43:39;;;;;;;7.70;3.03;;;;;;;13.59;100.00;103822.44;5072253;28;20067;-41
2021/12/16 11:46:13;;;;;;;9.85;4.15;;;;;;;13.51;100.00;103820.03;5073017;28;20165;-37
2021/12/16 11:48:42;;;;;;;10.43;4.47;;;;;;;13.43;100.00;103824.06;5072354;28;20087;-39
2021/12/16 11:51:15;;;;;;;10.63;4.65;;;;;;;13.26;100.00;103820.31;5082931;28;20056;-37
2021/12/16 11:53:49;;;;;;;9.70;4.20;;;;;;;13.18;100.00;103829.13;5093061;28;20058;-38
2021/12/16 11:56:19;;;;;;;7.65;4.30;;;;;;;13.13;100.00;103825.28;5091766;28;20044;-35
2021/12/16 11:58:48;;;;;;;8.50;4.28;;;;;;;13.07;100.00;103819.56;5092917;28;20040;-34
2021/12/16 12:01:21;;;;;;;7.53;3.30;;;;;;;13.16;100.00;103822.91;5092846;28;20056;-34
2021/12/16 12:03:50;;;;;;;6.88;3.97;;;;;;;13.29;100.00;103817.03;5091890;28;20040;-39
2021/12/16 12:06:25;;;;;;;8.95;3.60;;;;;;;13.41;100.00;103823.47;5090190;28;20044;-34
2021/12/16 12:08:55;;;;;;;10.52;4.45;;;;;;;13.49;100.00;103827.00;5092692;28;20489;-32
2021/12/16 12:11:26;;;;;;;10.02;4.45;;;;;;;13.44;100.00;103836.13;5092159;28;20052;-31
2021/12/16 12:13:57;;;;;;;9.57;4.28;;;;;;;13.44;100.00;103842.59;5076090;28;20131;-37
2021/12/16 12:16:29;;;;;;;7.53;3.33;;;;;;;13.43;100.00;103852.13;5092495;28;20044;-37
2021/12/16 12:19:00;;;;;;;7.93;3.60;;;;;;;13.45;100.00;103849.94;5091742;28;20039;-40
2021/12/16 12:21:35;;;;;;;8.98;3.92;;;;;;;13.44;100.00;103845.41;5092680;28;20112;-43
2021/12/16 12:24:06;;;;;;;8.25;3.50;;;;;;;13.44;100.00;103847.38;5091790;28;20048;-42
2021/12/16 12:26:37;;;;;;;7.32;3.17;;;;;;;13.40;100.00;103847.00;5089633;28;20056;-36
2021/12/16 12:29:08;;;;;;;5.18;2.88;;;;;;;13.35;100.00;103852.50;5090866;28;20449;-37
2021/12/16 12:31:40;;;;;;;7.68;3.22;;;;;;;13.33;100.00;103849.09;5091531;28;20503;-37
2021/12/16 12:34:09;;;;;;;9.32;3.72;;;;;;;13.31;100.00;103853.25;5092579;28;20048;-33
2021/12/16 12:36:40;;;;;;;8.00;3.40;;;;;;;13.28;100.00;103853.72;5091747;28;20047;-36
2021/12/16 12:39:10;;;;;;;6.15;3.00;;;;;;;13.26;100.00;103856.78;5090114;28;20052;-33
2021/12/16 12:41:38;;;;;;;8.45;3.22;;;;;;;13.23;100.00;103850.78;5091924;28;20036;-35
2021/12/16 12:44:06;;;;;;;6.57;2.80;;;;;;;13.13;100.00;103840.16;5092026;28;20067;-34
2021/12/16 12:46:38;;;;;;;5.60;2.70;;;;;;;13.06;100.00;103845.88;5091138;28;20048;-34
2021/12/16 12:49:08;;;;;;;;;;;;;;;12.95;100.00;103857.09;5092139;28;20058;-39
2021/12/16 12:51:39;;;;;;;6.95;3.08;;;;;;;12.82;100.00;103860.97;5091642;28;19966;-37
2021/12/16 12:54:22;;;;;;;8.43;3.45;;;;;;;12.78;100.00;103862.56;5092020;28;20055;-38
2021/12/16 12:56:50;;;;;;;;;;;;;;;12.65;100.00;103852.41;5091983;28;20146;-32
2021/12/16 12:59:18;;;;;;;5.93;2.33;;;;;;;12.61;100.00;103848.38;5091196;28;20015;-32
2021/12/16 13:01:50;;;;;;;6.22;2.60;;;;;;;12.65;100.00;103846.81;5091680;28;20044;-36
2021/12/16 13:04:22;;;;;;;6.53;3.17;;;;;;;12.64;100.00;103842.28;5081417;28;20080;-36
2021/12/16 13:07:02;;;;;;;6.30;3.13;;;;;;;12.60;100.00;103835.47;5090896;28;20056;-38
2021/12/16 13:09:34;;;;;;;7.13;3.92;;;;;;;12.53;100.00;103836.69;5081706;28;20063;-35
2021/12/16 13:12:19;;;;;;;8.50;3.55;;;;;;;12.47;100.00;103838.47;5091712;28;20451;-32
2021/12/16 13:14:51;;;;;;;9.55;4.07;;;;;;;12.40;100.00;103835.78;5081807;28;20497;-38
2021/12/16 13:23:21;;;;;;;9.03;4.13;;;;;;;12.34;100.00;103833.09;5091228;28;20036;-36
2021/12/16 13:23:42;;;;;;;8.18;3.40;;;;;;;12.05;100.00;103832.84;5081661;28;20062;-39
2021/12/16 13:29:08;;;;;;;9.75;4.65;;;;;;;11.95;100.00;103826.97;5090541;28;20131;-33
2021/12/16 13:31:46;;;;;;;9.55;4.25;;;;;;;11.88;100.00;103823.41;5074620;28;20043;-35
2021/12/16 13:34:48;;;;;;;9.70;4.88;;;;;;;11.82;100.00;103821.53;5087756;28;20787;-36
2021/12/16 13:37:23;;;;;;;11.25;5.03;;;;;;;11.72;100.00;103829.63;5091413;28;20378;-38
2021/12/16 13:40:01;;;;;;;10.45;5.30;;;;;;;11.68;100.00;103832.03;5090452;28;20044;-33
2021/12/16 13:42:41;;;;;;;10.48;5.63;;;;;;;11.64;100.00;103835.50;5090253;28;20412;-31
2021/12/16 13:45:17;;;;;;;10.90;5.53;;;;;;;11.59;100.00;103839.00;5087579;28;20386;-32
2021/12/16 14:03:03;;;;;;;8.95;4.82;;;;;;;11.32;100.00;103844.06;5088994;28;20047;-38